Time;durP1;ratioP1;P1;durP2;ratioP2;P2;SDS_P1;SDS_P2;PMS_P1;PMS_P2;Temp;Humidity;BMP_temperature;BMP_pressure;BME280_temperature;BME280_humidity;BME280_pressure;Samples;Min_cycle;Max_cycle;Signal;HPM_P1;HPM_P2
2022/05/25 00:01:48;;;;;;;4.10;2.00;;;;;;;13.73;100.00;96332.63;5062511;28;20289;-55
2022/05/25 00:04:15;;;;;;;2.50;1.80;;;;;;;13.70;100.00;96338.28;5077421;28;20180;-57
2022/05/25 00:06:42;;;;;;;3.87;2.00;;;;;;;13.71;100.00;96333.81;5077909;28;20195;-56
2022/05/25 00:09:12;;;;;;;4.80;2.40;;;;;;;13.70;100.00;96337.44;5061190;28;20207;-56
2022/05/25 00:11:46;;;;;;;3.90;2.27;;;;;;;13.65;100.00;96345.94;5054823;28;20214;-57
2022/05/25 00:14:14;;;;;;;2.53;2.20;;;;;;;13.66;100.00;96326.34;5055229;28;20199;-55
2022/05/25 00:16:41;;;;;;;2.80;1.87;;;;;;;13.58;100.00;96334.31;5053076;28;20215;-55
2022/05/25 00:21:52;;;;;;;2.70;2.13;;;;;;;13.65;100.00;96339.78;5055035;28;20206;-57
2022/05/25 00:24:21;;;;;;;1.80;1.73;;;;;;;13.60;100.00;96339.47;5055189;28;20218;-56
2022/05/25 00:26:47;;;;;;;2.20;2.10;;;;;;;13.63;100.00;96347.94;5054758;28;20249;-55
2022/05/25 00:29:15;;;;;;;2.60;2.40;;;;;;;13.62;100.00;96346.25;5054605;28;20619;-55
2022/05/25 00:31:42;;;;;;;2.30;2.20;;;;;;;13.62;100.00;96351.59;5054754;28;20231;-55
2022/05/25 00:34:09;;;;;;;2.93;2.40;;;;;;;13.62;100.00;96348.94;5054738;28;20207;-56
2022/05/25 00:36:36;;;;;;;2.60;2.33;;;;;;;13.61;100.00;96360.53;5054925;28;20207;-56
2022/05/25 00:39:05;;;;;;;2.93;2.60;;;;;;;13.59;100.00;96353.75;5054747;28;20211;-56
2022/05/25 00:41:34;;;;;;;2.43;2.33;;;;;;;13.60;100.00;96358.91;5054609;28;20214;-55
2022/05/25 00:44:04;;;;;;;2.43;2.33;;;;;;;13.57;100.00;96361.88;5045417;28;20204;-55
2022/05/25 00:46:33;;;;;;;2.70;2.47;;;;;;;13.56;100.00;96362.88;5057507;28;20218;-54
2022/05/25 00:49:03;;;;;;;3.00;2.40;;;;;;;13.61;100.00;96365.84;5054524;28;20253;-54
2022/05/25 00:51:32;;;;;;;3.87;2.73;;;;;;;13.54;100.00;96364.03;5056780;28;20237;-54
2022/05/25 00:54:02;;;;;;;3.03;2.63;;;;;;;13.44;100.00;96364.22;5057471;28;20214;-55
2022/05/25 00:56:30;;;;;;;5.17;2.70;;;;;;;13.52;100.00;96369.53;5045053;28;20211;-57
2022/05/25 00:59:04;;;;;;;2.37;2.27;;;;;;;13.43;100.00;96373.19;5054564;28;20235;-56
2022/05/25 01:01:32;;;;;;;3.10;2.80;;;;;;;13.34;100.00;96359.09;5052545;28;20210;-57
2022/05/25 01:03:59;;;;;;;2.43;2.33;;;;;;;13.32;100.00;96369.03;5053786;28;20207;-56
2022/05/25 01:06:49;;;;;;;2.63;2.43;;;;;;;13.36;100.00;96373.00;5056734;28;20207;-55
2022/05/25 01:09:26;;;;;;;3.23;2.90;;;;;;;13.35;100.00;96375.84;5056365;28;20207;-55
2022/05/25 01:12:07;;;;;;;4.93;2.80;;;;;;;13.36;100.00;96369.53;5051592;28;20207;-55
2022/05/25 01:14:46;;;;;;;3.20;3.00;;;;;;;13.37;100.00;96371.19;5053342;28;20209;-57
2022/05/25 01:17:25;;;;;;;4.03;2.93;;;;;;;13.40;100.00;96373.50;5057029;28;20191;-57
2022/05/25 01:20:06;;;;;;;3.60;2.93;;;;;;;13.40;100.00;96377.00;5058371;28;20215;-53
2022/05/25 01:22:57;;;;;;;3.30;3.00;;;;;;;13.39;100.00;96378.00;5044758;28;20206;-53
2022/05/25 01:25:39;;;;;;;3.10;2.90;;;;;;;13.40;100.00;96384.13;5058166;28;20218;-53
2022/05/25 01:28:16;;;;;;;6.07;3.50;;;;;;;13.37;100.00;96385.31;5057517;28;20235;-51
2022/05/25 01:30:49;;;;;;;3.90;3.60;;;;;;;13.41;100.00;96393.78;5057775;28;20264;-52
2022/05/25 01:33:19;;;;;;;4.13;3.20;;;;;;;13.47;100.00;96387.78;5057954;28;20206;-51
2022/05/25 01:35:56;;;;;;;3.90;3.60;;;;;;;13.49;100.00;96392.94;5058923;28;20192;-51
2022/05/25 01:38:25;;;;;;;3.80;3.50;;;;;;;13.51;100.00;96385.63;5058820;28;20206;-52
2022/05/25 01:40:59;;;;;;;4.00;3.70;;;;;;;13.47;100.00;96387.78;5058339;28;20227;-53
2022/05/25 01:43:29;;;;;;;6.03;4.00;;;;;;;13.53;100.00;96389.78;5057990;28;20195;-53
2022/05/25 01:46:02;;;;;;;4.70;4.30;;;;;;;13.53;100.00;96384.47;5058354;28;20210;-53
2022/05/25 01:48:32;;;;;;;4.17;3.87;;;;;;;13.56;100.00;96388.63;5057119;28;20203;-53
2022/05/25 01:51:03;;;;;;;5.20;4.07;;;;;;;13.54;100.00;96388.78;5057736;28;20241;-52
2022/05/25 01:53:33;;;;;;;4.00;3.70;;;;;;;13.53;100.00;96387.13;5058572;28;20199;-53
2022/05/25 01:56:02;;;;;;;3.57;3.33;;;;;;;13.56;100.00;96397.44;5057297;28;20639;-53
2022/05/25 01:58:30;;;;;;;4.17;3.77;;;;;;;13.58;100.00;96392.75;5049379;28;20218;-51
2022/05/25 02:01:00;;;;;;;3.87;3.57;;;;;;;13.53;100.00;96392.44;5056143;28;20249;-53
2022/05/25 02:06:21;;;;;;;4.47;4.07;;;;;;;13.52;100.00;96390.78;5056754;28;20213;-52
2022/05/25 02:09:14;;;;;;;4.13;3.70;;;;;;;13.52;100.00;96393.44;5044229;28;20208;-52
2022/05/25 02:11:46;;;;;;;3.43;3.23;;;;;;;13.51;100.00;96394.44;5056216;28;20265;-53
2022/05/25 02:14:26;;;;;;;4.03;3.20;;;;;;;13.50;100.00;96395.41;5043927;28;20673;-52
2022/05/25 02:16:58;;;;;;;3.53;3.30;;;;;;;13.44;100.00;96404.06;5057205;28;20222;-52
2022/05/25 02:19:38;;;;;;;3.97;3.57;;;;;;;13.46;100.00;96402.88;5066908;28;20278;-53
2022/05/25 02:22:10;;;;;;;3.47;3.17;;;;;;;13.42;100.00;96395.44;5079712;28;20203;-52
2022/05/25 02:24:39;;;;;;;3.93;3.60;;;;;;;13.42;100.00;96403.41;5080232;28;20188;-53
2022/05/25 02:27:10;;;;;;;3.83;3.50;;;;;;;13.41;100.00;96401.75;5061221;28;20242;-52
2022/05/25 02:29:42;;;;;;;3.60;3.30;;;;;;;13.44;100.00;96398.75;5057165;28;20206;-54
2022/05/25 02:32:13;;;;;;;4.57;3.40;;;;;;;13.40;100.00;96400.06;5050685;28;20220;-52
2022/05/25 02:34:46;;;;;;;3.80;3.50;;;;;;;13.42;100.00;96404.25;5049532;28;20221;-53
2022/05/25 02:37:14;;;;;;;3.80;3.50;;;;;;;13.42;100.00;96403.41;5043633;28;20211;-52
2022/05/25 02:39:40;;;;;;;4.10;3.53;;;;;;;13.37;100.00;96408.38;5056457;28;20231;-52
2022/05/25 02:42:17;;;;;;;3.57;3.30;;;;;;;13.40;100.00;96410.69;5055725;28;20234;-52
2022/05/25 02:44:44;;;;;;;4.07;3.27;;;;;;;13.36;100.00;96404.06;5057215;28;20206;-52
2022/05/25 02:47:13;;;;;;;3.70;3.50;;;;;;;13.36;100.00;96409.38;5056688;28;20545;-53
2022/05/25 02:49:42;;;;;;;3.50;3.30;;;;;;;13.34;100.00;96417.50;5056505;28;20232;-53
2022/05/25 02:52:10;;;;;;;3.77;3.40;;;;;;;13.31;100.00;96409.06;5056721;28;20285;-53
2022/05/25 02:54:38;;;;;;;4.30;3.50;;;;;;;13.39;100.00;96409.06;5056833;28;20211;-52
2022/05/25 02:57:06;;;;;;;3.90;3.60;;;;;;;13.39;100.00;96414.38;5056211;28;20265;-54
2022/05/25 02:59:34;;;;;;;3.97;3.67;;;;;;;13.38;100.00;96412.69;5056711;28;20235;-52
2022/05/25 03:02:02;;;;;;;3.70;3.37;;;;;;;13.35;100.00;96418.34;5053195;28;20223;-52
2022/05/25 03:04:31;;;;;;;3.53;3.23;;;;;;;13.30;100.00;96429.47;5056729;28;20226;-52
2022/05/25 03:06:58;;;;;;;4.83;3.60;;;;;;;13.30;100.00;96431.28;5044359;28;20231;-51
2022/05/25 03:09:26;;;;;;;5.60;3.67;;;;;;;13.28;100.00;96425.31;5055931;28;20253;-52
2022/05/25 03:11:53;;;;;;;3.20;3.00;;;;;;;13.33;100.00;96436.25;5049565;28;20223;-52
2022/05/25 03:14:21;;;;;;;3.47;3.27;;;;;;;13.26;100.00;96429.94;5055552;28;20203;-53
2022/05/25 03:16:48;;;;;;;3.40;3.10;;;;;;;13.18;100.00;96428.09;5056407;28;20207;-54
2022/05/25 03:19:17;;;;;;;5.77;3.03;;;;;;;13.18;100.00;96428.09;5043099;28;20551;-52
2022/05/25 03:21:45;;;;;;;3.53;3.10;;;;;;;13.18;100.00;96422.00;5056261;28;20238;-52
2022/05/25 03:24:15;;;;;;;3.50;3.20;;;;;;;13.18;100.00;96424.66;5054066;28;20207;-53
2022/05/25 03:26:41;;;;;;;3.33;3.13;;;;;;;13.17;100.00;96429.13;5055756;28;20243;-52
2022/05/25 03:29:13;;;;;;;3.30;3.10;;;;;;;13.21;100.00;96432.28;5047307;28;20592;-51
2022/05/25 03:31:40;;;;;;;3.07;2.87;;;;;;;13.09;100.00;96434.41;5052846;28;20203;-53
2022/05/25 03:34:07;;;;;;;3.57;3.30;;;;;;;13.13;100.00;96442.88;5054329;28;20223;-52
2022/05/25 03:36:35;;;;;;;4.07;3.30;;;;;;;13.07;100.00;96446.16;5056628;28;20590;-52
2022/05/25 03:39:07;;;;;;;3.80;1.90;;;;;;;12.98;100.00;96459.41;5057539;28;20211;-53
2022/05/25 03:41:34;;;;;;;1.90;1.73;;;;;;;12.97;100.00;96457.75;5059381;28;20298;-53
2022/05/25 03:44:01;;;;;;;5.17;1.90;;;;;;;12.95;100.00;96465.06;5058814;28;20214;-53
2022/05/25 03:46:28;;;;;;;2.37;1.77;;;;;;;12.93;100.00;96461.72;5059555;28;20279;-53
2022/05/25 03:48:54;;;;;;;4.03;1.97;;;;;;;12.85;100.00;96459.06;5065066;28;20203;-52
2022/05/25 03:51:21;;;;;;;1.70;1.60;;;;;;;12.84;100.00;96461.84;5075900;28;20207;-52
2022/05/25 03:53:49;;;;;;;2.13;1.90;;;;;;;12.82;100.00;96458.53;5077920;28;20195;-51
2022/05/25 03:56:17;;;;;;;2.27;2.07;;;;;;;12.82;100.00;96472.63;5077753;28;20222;-52
2022/05/25 03:58:44;;;;;;;1.70;1.60;;;;;;;12.84;100.00;96473.31;5077373;28;20182;-52
2022/05/25 04:01:12;;;;;;;2.93;1.93;;;;;;;12.83;100.00;96476.09;5074601;28;20226;-52
2022/05/25 04:03:39;;;;;;;2.63;1.73;;;;;;;12.83;100.00;96482.25;5093751;28;20223;-51
2022/05/25 04:06:06;;;;;;;2.73;2.07;;;;;;;12.71;100.00;96478.25;5072884;28;20188;-52
2022/05/25 04:08:34;;;;;;;2.80;1.60;;;;;;;12.70;100.00;96487.19;5057905;28;20204;-52
2022/05/25 04:11:02;;;;;;;3.23;1.73;;;;;;;12.68;100.00;96491.81;5073172;28;20664;-52
2022/05/25 04:13:30;;;;;;;2.13;1.67;;;;;;;12.65;100.00;96494.78;5047570;28;20223;-52
2022/05/25 04:15:57;;;;;;;2.37;1.80;;;;;;;12.68;100.00;96497.09;5042043;28;20544;-52
2022/05/25 04:18:23;;;;;;;3.27;2.17;;;;;;;12.71;100.00;96504.78;5070462;28;20265;-52
2022/05/25 04:20:50;;;;;;;1.87;1.50;;;;;;;12.67;100.00;96507.91;5054483;28;20230;-52
2022/05/25 04:23:17;;;;;;;1.70;1.60;;;;;;;12.68;100.00;96518.34;5053670;28;20293;-51
2022/05/25 04:25:44;;;;;;;2.03;1.60;;;;;;;12.72;100.00;96511.72;5054983;28;20221;-52
2022/05/25 04:28:11;;;;;;;4.97;1.80;;;;;;;12.68;100.00;96507.72;5040805;28;20239;-52
2022/05/25 04:30:39;;;;;;;2.17;1.80;;;;;;;12.66;100.00;96516.84;5054643;28;20213;-52
2022/05/25 04:33:06;;;;;;;3.47;1.90;;;;;;;12.68;100.00;96520.19;5068747;28;20218;-52
2022/05/25 04:35:32;;;;;;;1.80;1.70;;;;;;;12.70;100.00;96523.50;5075042;28;20198;-53
2022/05/25 04:37:59;;;;;;;2.37;1.90;;;;;;;12.69;100.00;96527.97;5060082;28;20330;-52
2022/05/25 04:40:31;;;;;;;2.27;2.07;;;;;;;12.70;100.00;96534.94;5076551;28;20206;-52
2022/05/25 04:43:02;;;;;;;2.37;1.83;;;;;;;12.68;100.00;96531.59;5074002;28;20183;-53
2022/05/25 04:45:31;;;;;;;3.27;1.80;;;;;;;12.70;100.00;96540.25;5076913;28;20202;-52
2022/05/25 04:48:02;;;;;;;1.77;1.63;;;;;;;12.74;100.00;96540.75;5058533;28;20286;-52
2022/05/25 04:50:33;;;;;;;2.53;2.10;;;;;;;12.76;100.00;96531.66;5058523;28;20218;-53
2022/05/25 04:53:03;;;;;;;2.33;1.97;;;;;;;12.74;100.00;96531.00;5058097;28;20207;-52
2022/05/25 04:58:20;;;;;;;2.93;1.83;;;;;;;12.78;100.00;96536.81;5057878;28;20210;-52
2022/05/25 05:00:47;;;;;;;2.30;2.07;;;;;;;12.81;100.00;96536.47;5058524;28;20223;-52
2022/05/25 05:03:15;;;;;;;4.20;1.80;;;;;;;12.84;100.00;96546.78;5058466;28;20210;-52
2022/05/25 05:05:42;;;;;;;2.60;1.90;;;;;;;12.84;100.00;96550.28;5058250;28;20222;-52
2022/05/25 05:08:09;;;;;;;2.80;1.80;;;;;;;12.92;100.00;96555.63;5057875;28;20207;-52
2022/05/25 05:10:38;;;;;;;1.73;1.63;;;;;;;12.89;100.00;96560.41;5059036;28;20218;-53
2022/05/25 05:13:05;;;;;;;2.20;2.10;;;;;;;12.91;100.00;96556.59;5049779;28;20206;-51
2022/05/25 05:15:33;;;;;;;2.03;1.83;;;;;;;12.91;100.00;96553.94;5068532;28;20208;-52
2022/05/25 05:18:02;;;;;;;1.97;1.63;;;;;;;12.96;100.00;96556.97;5059479;28;20222;-52
2022/05/25 05:20:32;;;;;;;2.80;2.10;;;;;;;13.03;100.00;96556.31;5053911;28;20265;-53
2022/05/25 05:22:58;;;;;;;1.90;1.80;;;;;;;13.07;100.00;96558.50;5057985;28;20347;-52
2022/05/25 05:25:27;;;;;;;2.67;2.47;;;;;;;13.18;100.00;96557.41;5057963;28;20281;-52
2022/05/25 05:27:54;;;;;;;3.20;2.07;;;;;;;13.28;100.00;96561.59;5057711;28;20238;-51
2022/05/25 05:30:22;;;;;;;4.13;2.40;;;;;;;13.34;100.00;96554.78;5057053;28;20195;-52
2022/05/25 05:32:49;;;;;;;2.53;2.33;;;;;;;13.40;100.00;96554.13;5057268;28;20207;-52
2022/05/25 05:35:19;;;;;;;2.53;2.43;;;;;;;13.50;100.00;96565.44;5057658;28;20218;-53
2022/05/25 05:37:52;;;;;;;2.80;2.60;;;;;;;13.57;100.00;96563.78;5057399;28;20635;-52
2022/05/25 05:40:20;;;;;;;3.33;3.03;;;;;;;13.68;100.00;96560.81;5057603;28;20210;-52
2022/05/25 05:42:48;;;;;;;6.60;3.60;;;;;;;13.72;100.00;96570.13;5057235;28;20622;-52
2022/05/25 05:45:20;;;;;;;3.67;3.30;;;;;;;13.81;100.00;96577.16;5058257;28;20564;-52
2022/05/25 05:47:50;;;;;;;4.27;3.90;;;;;;;13.88;100.00;96579.97;5057396;28;20207;-52
2022/05/25 05:50:17;;;;;;;7.70;4.10;;;;;;;13.90;100.00;96583.28;5057898;28;20207;-52
2022/05/25 05:52:43;;;;;;;4.10;3.50;;;;;;;13.94;100.00;96596.09;5056677;28;20203;-51
2022/05/25 05:55:12;;;;;;;3.80;3.53;;;;;;;13.91;100.00;96592.94;5058185;28;20207;-51
2022/05/25 05:57:39;;;;;;;3.60;3.40;;;;;;;13.90;100.00;96594.75;5057274;28;20570;-51
2022/05/25 06:00:07;;;;;;;5.20;3.47;;;;;;;13.96;100.00;96606.53;5057287;28;20206;-51
2022/05/25 06:02:34;;;;;;;3.30;3.10;;;;;;;13.85;100.00;96610.34;5057069;28;20223;-50
2022/05/25 06:05:00;;;;;;;3.83;3.53;;;;;;;13.87;100.00;96602.22;5057041;28;20663;-51
2022/05/25 06:07:27;;;;;;;3.70;3.40;;;;;;;13.91;100.00;96609.72;5056872;28;20215;-51
2022/05/25 06:09:56;;;;;;;4.70;3.47;;;;;;;13.94;100.00;96609.38;5057249;28;20199;-52
2022/05/25 06:12:27;;;;;;;3.47;3.27;;;;;;;13.92;100.00;96606.03;5054792;28;20723;-51
2022/05/25 06:14:56;;;;;;;3.90;3.60;;;;;;;14.03;100.00;96604.06;5057391;28;20238;-50
2022/05/25 06:20:10;;;;;;;6.37;3.90;;;;;;;14.08;100.00;96621.19;5057861;28;20229;-52
2022/05/25 06:22:37;;;;;;;4.50;3.87;;;;;;;14.09;100.00;96627.34;5048717;28;20233;-52
2022/05/25 06:25:04;;;;;;;4.60;4.00;;;;;;;14.13;100.00;96621.53;5070605;28;20203;-54
2022/05/25 06:27:32;;;;;;;4.00;3.60;;;;;;;14.15;100.00;96624.84;5048453;28;20269;-54
2022/05/25 06:30:00;;;;;;;4.33;4.10;;;;;;;14.21;100.00;96629.50;5056373;28;20214;-54
2022/05/25 06:32:27;;;;;;;4.50;4.10;;;;;;;14.23;100.00;96627.53;5056084;28;20207;-52
2022/05/25 06:34:55;;;;;;;4.53;4.13;;;;;;;14.26;100.00;96636.97;5056728;28;20207;-53
2022/05/25 06:37:23;;;;;;;4.30;3.97;;;;;;;14.29;100.00;96639.31;5056527;28;20215;-53
2022/05/25 06:39:50;;;;;;;5.60;4.50;;;;;;;14.33;100.00;96646.81;5055482;28;20222;-52
2022/05/25 06:42:18;;;;;;;5.27;4.60;;;;;;;14.39;100.00;96642.66;5056217;28;20609;-52
2022/05/25 06:44:48;;;;;;;4.13;3.83;;;;;;;14.46;100.00;96643.66;5055788;28;20218;-52
2022/05/25 06:47:16;;;;;;;4.90;4.50;;;;;;;14.56;100.00;96649.63;5055287;28;20270;-52
2022/05/25 06:49:43;;;;;;;4.40;4.00;;;;;;;14.65;100.00;96645.16;5056071;28;20261;-52
2022/05/25 06:52:12;;;;;;;4.50;4.10;;;;;;;14.63;100.00;96650.63;5055843;28;20211;-53
2022/05/25 06:54:42;;;;;;;4.53;4.23;;;;;;;14.71;100.00;96658.63;5055778;28;20829;-53
2022/05/25 06:57:09;;;;;;;5.27;3.97;;;;;;;14.83;100.00;96657.28;5055876;28;20627;-52
2022/05/25 06:59:35;;;;;;;5.40;3.60;;;;;;;14.81;100.00;96659.25;5054966;28;20211;-53
2022/05/25 07:02:05;;;;;;;4.07;3.70;;;;;;;14.90;100.00;96671.56;5078567;28;20210;-59
2022/05/25 07:04:32;;;;;;;4.27;3.87;;;;;;;14.89;100.00;96672.56;5077387;28;20199;-52
2022/05/25 07:07:03;;;;;;;4.07;3.77;;;;;;;14.89;100.00;96672.56;5072329;28;20245;-53
2022/05/25 07:09:31;;;;;;;6.77;4.03;;;;;;;14.99;100.00;96682.19;5050025;28;20522;-52
2022/05/25 07:11:58;;;;;;;3.97;3.67;;;;;;;15.09;100.00;96689.00;5056885;28;20206;-53
2022/05/25 07:14:25;;;;;;;5.47;3.63;;;;;;;15.18;100.00;96676.50;5055580;28;20211;-52
2022/05/25 07:16:51;;;;;;;5.17;3.73;;;;;;;15.26;100.00;96682.66;5055277;28;20210;-53
2022/05/25 07:19:21;;;;;;;6.00;4.50;;;;;;;15.18;99.27;96677.34;5053090;28;20227;-52
2022/05/25 07:21:49;;;;;;;8.77;5.20;;;;;;;15.38;100.00;96686.59;5055125;28;20226;-54
2022/05/25 07:24:16;;;;;;;4.43;4.00;;;;;;;15.52;100.00;96674.41;5054911;28;20199;-53
2022/05/25 07:26:43;;;;;;;4.25;3.85;;;;;;;15.54;98.48;96677.75;5054943;28;20219;-53
2022/05/25 07:29:10;;;;;;;5.10;4.00;;;;;;;15.53;97.57;96678.75;5054722;28;20210;-52
2022/05/25 07:31:39;;;;;;;4.50;4.10;;;;;;;15.57;97.98;96679.22;5055188;28;20606;-53
2022/05/25 07:34:13;;;;;;;3.87;3.40;;;;;;;15.68;97.64;96674.38;5055338;28;20211;-53
2022/05/25 07:36:42;;;;;;;3.90;3.65;;;;;;;15.68;99.47;96676.19;5055359;28;20203;-53
2022/05/25 07:39:11;;;;;;;4.40;3.80;;;;;;;15.81;97.71;96684.44;5054927;28;20210;-52
2022/05/25 07:41:40;;;;;;;4.60;4.20;;;;;;;15.96;97.20;96688.03;5055262;28;20239;-53
2022/05/25 07:44:11;;;;;;;3.77;3.30;;;;;;;16.12;96.05;96693.28;5054634;28;20207;-53
2022/05/25 07:46:38;;;;;;;4.53;4.13;;;;;;;16.17;93.43;96698.94;5055309;28;20203;-53
2022/05/25 07:49:04;;;;;;;5.35;3.60;;;;;;;16.29;92.95;96702.03;5043595;28;20216;-53
2022/05/25 07:51:31;;;;;;;5.18;3.88;;;;;;;16.24;92.97;96699.03;5053531;28;20217;-53
2022/05/25 07:54:00;;;;;;;4.22;3.15;;;;;;;16.30;91.75;96706.34;5055086;28;20210;-53
2022/05/25 07:56:31;;;;;;;3.30;3.10;;;;;;;16.36;89.75;96705.66;5055022;28;20207;-53
2022/05/25 07:58:58;;;;;;;4.22;3.38;;;;;;;16.35;87.73;96709.31;5055989;28;20206;-53
2022/05/25 08:06:59;;;;;;;3.83;3.25;;;;;;;16.49;87.88;96707.72;5048735;28;20317;-52
2022/05/25 08:09:32;;;;;;;4.88;3.28;;;;;;;16.64;88.07;96714.81;5054886;28;20230;-53
2022/05/25 08:11:59;;;;;;;3.25;2.95;;;;;;;16.64;82.89;96713.97;5051431;28;20203;-52
2022/05/25 08:14:27;;;;;;;3.45;2.80;;;;;;;16.70;87.07;96714.09;5054131;28;20627;-52
2022/05/25 08:16:55;;;;;;;4.25;2.78;;;;;;;16.69;83.33;96714.25;5054090;28;20651;-52
2022/05/25 08:19:22;;;;;;;3.00;2.80;;;;;;;16.96;86.56;96707.53;5053567;28;20218;-52
2022/05/25 08:21:49;;;;;;;3.08;2.67;;;;;;;17.03;82.09;96711.16;5054600;28;20238;-52
2022/05/25 08:24:16;;;;;;;3.00;2.80;;;;;;;17.06;80.52;96708.09;5054782;28;20226;-50
2022/05/25 08:26:46;;;;;;;3.00;2.60;;;;;;;17.19;80.07;96710.97;5048822;28;20527;-52
2022/05/25 08:29:14;;;;;;;4.65;2.50;;;;;;;17.24;78.64;96711.28;5052565;28;20195;-51
2022/05/25 08:31:42;;;;;;;2.78;2.42;;;;;;;17.39;79.19;96714.78;5054209;28;20655;-53
2022/05/25 08:34:09;;;;;;;3.13;2.80;;;;;;;17.50;79.77;96711.63;5054386;28;20217;-52
2022/05/25 08:36:35;;;;;;;4.32;2.45;;;;;;;17.46;80.61;96710.38;5054541;28;20215;-53
2022/05/25 08:39:02;;;;;;;3.88;2.35;;;;;;;17.37;79.65;96714.97;5054387;28;20206;-51
2022/05/25 08:41:34;;;;;;;2.53;2.33;;;;;;;17.27;81.36;96721.59;5054426;28;20203;-51
2022/05/25 08:44:03;;;;;;;2.33;2.10;;;;;;;17.41;79.17;96718.94;5054382;28;20305;-51
2022/05/25 08:46:33;;;;;;;2.33;2.00;;;;;;;17.57;77.74;96717.94;5054362;28;20230;-52
2022/05/25 08:49:01;;;;;;;2.35;2.15;;;;;;;17.44;77.98;96723.06;5054138;28;20199;-52
2022/05/25 08:51:37;;;;;;;2.45;2.03;;;;;;;17.59;75.98;96723.94;5053970;28;20298;-51
2022/05/25 08:54:04;;;;;;;2.40;1.70;;;;;;;17.72;73.92;96718.78;5053167;28;20202;-52
2022/05/25 08:56:39;;;;;;;4.18;1.95;;;;;;;17.82;71.53;96716.63;5054726;28;20207;-52
2022/05/25 08:59:13;;;;;;;1.70;1.60;;;;;;;17.66;74.10;96727.56;5054157;28;20194;-53
2022/05/25 09:01:44;;;;;;;2.15;1.95;;;;;;;17.72;75.94;96720.63;5054033;28;20196;-53
2022/05/25 09:04:17;;;;;;;4.43;2.58;;;;;;;17.84;76.24;96719.16;5054215;28;20207;-51
2022/05/25 09:06:51;;;;;;;2.42;2.20;;;;;;;18.21;75.26;96726.19;5054271;28;20575;-51
2022/05/25 09:09:24;;;;;;;2.65;2.45;;;;;;;18.22;71.82;96712.59;5054334;28;20207;-52
2022/05/25 09:11:53;;;;;;;3.38;2.25;;;;;;;18.31;76.61;96721.38;5050943;28;20232;-53
2022/05/25 09:14:26;;;;;;;3.63;2.42;;;;;;;18.44;73.68;96720.66;5054374;28;20203;-52
2022/05/25 09:16:57;;;;;;;2.38;2.17;;;;;;;18.41;72.71;96721.88;5053802;28;20199;-53
2022/05/25 09:19:26;;;;;;;4.20;2.05;;;;;;;18.60;71.25;96721.28;5042277;28;20199;-53
2022/05/25 09:21:55;;;;;;;2.35;2.00;;;;;;;18.61;65.50;96727.47;5073599;28;20230;-52
2022/05/25 09:24:23;;;;;;;4.70;2.25;;;;;;;18.86;67.89;96726.06;5073982;28;20257;-54
2022/05/25 09:26:50;;;;;;;3.65;1.88;;;;;;;18.82;67.24;96730.97;5072043;28;20213;-53
2022/05/25 09:29:18;;;;;;;3.75;3.47;;;;;;;19.54;67.60;96722.72;5057350;28;20235;-52
2022/05/25 09:31:51;;;;;;;3.08;2.72;;;;;;;20.19;67.22;96722.19;5057795;28;20526;-53
2022/05/25 09:34:26;;;;;;;2.78;2.03;;;;;;;20.52;61.51;96726.88;5057847;28;20210;-54
2022/05/25 09:36:57;;;;;;;1.98;1.80;;;;;;;20.58;60.13;96724.19;5058143;28;20207;-52
2022/05/25 09:39:27;;;;;;;1.70;1.60;;;;;;;21.06;63.76;96732.13;5057855;28;20666;-53
2022/05/25 09:41:59;;;;;;;2.10;1.90;;;;;;;21.31;60.63;96735.88;5057554;28;20199;-52
2022/05/25 09:44:27;;;;;;;2.25;1.92;;;;;;;21.51;59.88;96731.31;5056986;28;20213;-51
2022/05/25 09:46:59;;;;;;;1.73;1.63;;;;;;;21.75;61.60;96727.94;5057400;28;20516;-52
2022/05/25 09:49:31;;;;;;;1.90;1.80;;;;;;;21.82;57.60;96728.75;5052542;28;20659;-52
2022/05/25 09:52:02;;;;;;;4.15;2.05;;;;;;;22.16;59.18;96724.97;5057119;28;20670;-52
2022/05/25 09:54:32;;;;;;;2.60;1.85;;;;;;;22.30;54.44;96720.34;5057254;28;20564;-52
2022/05/25 09:57:02;;;;;;;2.00;1.90;;;;;;;22.58;55.44;96728.91;5056811;28;20229;-53
2022/05/25 09:59:34;;;;;;;2.72;2.00;;;;;;;22.70;54.02;96719.13;5056666;28;20578;-53
2022/05/25 10:02:05;;;;;;;5.32;1.95;;;;;;;22.72;52.89;96722.44;5056957;28;20254;-52
2022/05/25 10:04:39;;;;;;;3.33;1.50;;;;;;;22.82;52.86;96724.63;5057660;28;20203;-52
2022/05/25 10:07:17;;;;;;;1.80;1.48;;;;;;;22.92;56.67;96713.38;5057565;28;20225;-52
2022/05/25 10:09:46;;;;;;;2.58;1.45;;;;;;;23.16;52.61;96723.38;5056668;28;20631;-52
2022/05/25 10:12:19;;;;;;;1.40;1.23;;;;;;;22.96;48.71;96725.38;5058625;28;20207;-53
2022/05/25 10:14:57;;;;;;;1.38;0.82;;;;;;;23.08;50.20;96727.16;5056598;28;20233;-56
2022/05/25 10:17:35;;;;;;;1.52;1.27;;;;;;;23.19;51.00;96720.22;5056677;28;20203;-55
2022/05/25 10:20:05;;;;;;;1.40;1.30;;;;;;;22.85;50.16;96726.09;5056970;28;20234;-52
2022/05/25 10:22:35;;;;;;;0.88;0.88;;;;;;;23.14;47.09;96722.75;5056971;28;20572;-54
2022/05/25 10:25:03;;;;;;;4.82;1.67;;;;;;;23.07;46.33;96716.56;5056284;28;20203;-53
2022/05/25 10:27:36;;;;;;;1.05;0.98;;;;;;;23.24;46.61;96723.91;5056336;28;20246;-52
2022/05/25 10:38:41;;;;;;;1.50;0.98;;;;;;;24.19;44.41;96716.38;5054713;28;20218;-52
2022/05/25 10:44:01;;;;;;;1.15;0.80;;;;;;;24.27;45.23;96719.56;5055755;28;20302;-53
2022/05/25 10:46:30;;;;;;;1.60;1.35;;;;;;;24.12;44.75;96711.00;5055859;28;20194;-53
2022/05/25 10:49:06;;;;;;;1.58;1.05;;;;;;;24.30;44.50;96712.06;5056304;28;20563;-54
2022/05/25 10:51:40;;;;;;;1.70;1.20;;;;;;;24.47;46.88;96713.91;5055267;28;20313;-54
2022/05/25 10:57:00;;;;;;;0.90;0.90;;;;;;;24.44;45.39;96708.97;5056029;28;20272;-55
2022/05/25 10:59:30;;;;;;;3.17;1.30;;;;;;;24.80;45.69;96708.03;5055954;28;20206;-55
2022/05/25 11:02:16;;;;;;;1.92;1.27;;;;;;;24.82;44.96;96715.91;5056901;28;20241;-56
2022/05/25 11:05:07;;;;;;;2.00;1.30;;;;;;;25.01;44.13;96714.84;5043426;28;20199;-55
2022/05/25 11:07:35;;;;;;;2.85;1.20;;;;;;;24.62;42.52;96711.59;5056590;28;20302;-53
2022/05/25 11:10:37;;;;;;;0.95;0.88;;;;;;;24.38;45.06;96719.84;5055921;28;20237;-53
2022/05/25 11:13:18;;;;;;;1.48;0.90;;;;;;;23.73;41.20;96701.47;5052474;28;20304;-56
2022/05/25 11:15:51;;;;;;;1.25;1.15;;;;;;;24.30;41.08;96707.50;5055981;28;20202;-56
2022/05/25 11:18:39;;;;;;;0.90;0.90;;;;;;;24.35;42.84;96695.97;5055293;28;20638;-53
2022/05/25 11:21:19;;;;;;;1.52;0.93;;;;;;;24.68;42.36;96705.31;5044607;28;20203;-56
2022/05/25 11:24:13;;;;;;;1.80;1.00;;;;;;;25.01;39.09;96709.44;5055818;28;20226;-53
2022/05/25 11:26:50;;;;;;;2.38;1.15;;;;;;;25.10;38.03;96713.44;5056711;28;20228;-54
2022/05/25 11:29:28;;;;;;;3.65;1.70;;;;;;;24.97;43.56;96709.06;5045899;28;20226;-54
2022/05/25 11:32:10;;;;;;;1.58;1.48;;;;;;;25.26;38.75;96715.44;5058262;28;20202;-55
2022/05/25 11:34:45;;;;;;;3.50;0.75;;;;;;;25.19;38.14;96707.44;5058745;28;20203;-55
2022/05/25 11:37:31;;;;;;;0.65;0.55;;;;;;;25.50;38.81;96713.63;5066521;28;20198;-56
2022/05/25 11:40:04;;;;;;;0.82;0.75;;;;;;;25.45;38.28;96711.59;5071210;28;20222;-55
2022/05/25 11:42:44;;;;;;;0.90;0.80;;;;;;;25.58;35.44;96705.97;5062677;28;20211;-56
2022/05/25 11:45:23;;;;;;;1.83;1.02;;;;;;;25.64;36.16;96710.47;5073772;28;20209;-53
2022/05/25 11:47:59;;;;;;;1.17;0.70;;;;;;;25.62;38.08;96712.56;5077659;28;20176;-56
2022/05/25 11:50:37;;;;;;;0.70;0.70;;;;;;;25.41;36.42;96707.72;5070933;28;20201;-56
2022/05/25 11:53:30;;;;;;;2.28;0.75;;;;;;;25.18;38.40;96710.41;5068657;28;20203;-55
2022/05/25 11:56:04;;;;;;;1.10;0.77;;;;;;;25.10;38.95;96708.03;5064422;28;20217;-56
2022/05/25 11:58:39;;;;;;;1.48;0.70;;;;;;;25.22;35.79;96701.56;5057042;28;20294;-55
2022/05/25 12:01:10;;;;;;;1.27;1.08;;;;;;;25.32;36.55;96701.00;5055911;28;20241;-55
2022/05/25 12:04:03;;;;;;;1.50;0.77;;;;;;;25.50;35.63;96703.59;5055393;28;20229;-55
2022/05/25 12:06:51;;;;;;;1.17;0.50;;;;;;;25.51;34.71;96696.31;5044713;28;20196;-53
2022/05/25 12:09:27;;;;;;;2.78;1.20;;;;;;;25.51;35.17;96694.44;5053139;28;20203;-55
2022/05/25 12:11:59;;;;;;;2.15;0.80;;;;;;;24.69;34.82;96696.13;5053893;28;20278;-54
2022/05/25 12:14:57;;;;;;;1.67;0.88;;;;;;;24.80;34.94;96705.31;5050004;28;20286;-54
2022/05/25 12:17:28;;;;;;;2.13;0.70;;;;;;;24.87;36.34;96710.69;5055097;28;20272;-53